TimeCDT,TemperatureF,Dew PointF,Humidity,Sea Level PressureIn,VisibilityMPH,Wind Direction,Wind SpeedMPH,Gust SpeedMPH,PrecipitationIn,Events,Conditions,WindDirDegrees,DateUTC
12:51 AM,75.0,73.0,94,29.79,5.0,SE,5.8,-,N/A,,Overcast,140,2012-04-04 05:51:00
1:51 AM,75.9,73.0,91,29.79,6.0,Calm,Calm,-,N/A,,Overcast,0,2012-04-04 06:51:00
2:30 AM,75.2,73.4,94,29.79,6.0,East,5.8,-,N/A,,Overcast,90,2012-04-04 07:30:00
2:51 AM,75.9,73.0,91,29.78,7.0,East,6.9,-,N/A,,Overcast,100,2012-04-04 07:51:00
3:27 AM,75.2,71.6,89,29.78,7.0,East,4.6,-,N/A,,Scattered Clouds,90,2012-04-04 08:27:00
3:51 AM,73.9,72.0,93,29.77,7.0,ESE,3.5,-,N/A,,Mostly Cloudy,120,2012-04-04 08:51:00
4:08 AM,75.2,71.6,89,29.77,7.0,Calm,Calm,-,N/A,,Overcast,0,2012-04-04 09:08:00
4:23 AM,73.4,71.6,94,29.77,8.0,SSE,3.5,-,N/A,,Scattered Clouds,160,2012-04-04 09:23:00
4:51 AM,73.9,72.0,93,29.78,7.0,Calm,Calm,-,N/A,,Mostly Cloudy,0,2012-04-04 09:51:00
5:21 AM,73.4,71.6,94,29.79,7.0,Calm,Calm,-,N/A,,Overcast,0,2012-04-04 10:21:00
5:51 AM,75.0,73.0,94,29.79,7.0,Calm,Calm,-,N/A,,Overcast,0,2012-04-04 10:51:00
6:12 AM,73.4,71.6,94,29.80,7.0,Calm,Calm,-,N/A,,Overcast,0,2012-04-04 11:12:00
6:51 AM,73.9,71.1,91,29.81,6.0,Calm,Calm,-,N/A,,Mostly Cloudy,0,2012-04-04 11:51:00
7:28 AM,73.4,71.6,94,29.81,5.0,Calm,Calm,-,N/A,,Scattered Clouds,0,2012-04-04 12:28:00
7:51 AM,73.0,71.1,93,29.81,4.0,Calm,Calm,-,N/A,,Scattered Clouds,0,2012-04-04 12:51:00
8:51 AM,75.0,73.0,94,29.83,4.0,Calm,Calm,-,N/A,,Scattered Clouds,0,2012-04-04 13:51:00
9:22 AM,78.8,71.6,78,29.82,5.0,Calm,Calm,-,N/A,,Haze,0,2012-04-04 14:22:00
9:51 AM,79.0,72.0,79,29.83,5.0,Calm,Calm,-,N/A,,Haze,0,2012-04-04 14:51:00
10:51 AM,80.1,73.0,79,29.84,5.0,North,8.1,-,N/A,,Haze,360,2012-04-04 15:51:00
10:58 AM,80.6,73.4,79,29.84,5.0,North,6.9,-,N/A,,Haze,360,2012-04-04 15:58:00
11:51 AM,84.0,72.0,67,29.84,8.0,ENE,9.2,-,N/A,,Scattered Clouds,60,2012-04-04 16:51:00
12:51 PM,86.0,70.0,59,29.81,8.0,Variable,5.8,-,N/A,,Scattered Clouds,0,2012-04-04 17:51:00
1:51 PM,89.1,68.0,50,29.78,10.0,Calm,Calm,-,N/A,,Scattered Clouds,0,2012-04-04 18:51:00
2:51 PM,88.0,68.0,51,29.75,9.0,ESE,8.1,-,N/A,,Mostly Cloudy,110,2012-04-04 19:51:00
3:51 PM,88.0,69.1,53,29.73,9.0,East,9.2,-,N/A,,Scattered Clouds,100,2012-04-04 20:51:00
4:51 PM,87.1,68.0,53,29.70,9.0,Calm,Calm,-,N/A,,Mostly Cloudy,0,2012-04-04 21:51:00
5:51 PM,87.1,69.1,55,29.70,10.0,East,9.2,-,N/A,,Scattered Clouds,100,2012-04-04 22:51:00
6:51 PM,84.9,68.0,57,29.70,10.0,SE,9.2,-,N/A,,Partly Cloudy,130,2012-04-04 23:51:00
7:51 PM,82.0,69.1,65,29.71,10.0,ESE,6.9,-,N/A,,Partly Cloudy,120,2012-04-05 00:51:00
8:51 PM,79.0,70.0,74,29.74,10.0,SE,6.9,-,N/A,,Scattered Clouds,140,2012-04-05 01:51:00
9:51 PM,77.0,70.0,79,29.77,10.0,ESE,6.9,-,N/A,,Partly Cloudy,120,2012-04-05 02:51:00
10:51 PM,77.0,71.1,82,29.79,10.0,ESE,6.9,-,N/A,,Partly Cloudy,110,2012-04-05 03:51:00
11:28 PM,77.0,71.6,83,29.79,9.0,ESE,6.9,-,N/A,,Partly Cloudy,110,2012-04-05 04:28:00
11:51 PM,75.9,72.0,87,29.79,8.0,ESE,6.9,-,N/A,,Scattered Clouds,120,2012-04-05 04:51:00